Time;durP1;ratioP1;P1;durP2;ratioP2;P2;SDS_P1;SDS_P2;PMS_P1;PMS_P2;Temp;Humidity;BMP_temperature;BMP_pressure;BME280_temperature;BME280_humidity;BME280_pressure;Samples;Min_cycle;Max_cycle;Signal;HPM_P1;HPM_P2
2023/05/31 00:01:54;;;;;;;10.63;5.82;;;;;;;19.35;65.41;100493.69;5078886;28;20367;-68
2023/05/31 00:04:19;;;;;;;11.38;5.60;;;;;;;19.33;65.61;100492.19;5070559;28;20478;-68
2023/05/31 00:06:45;;;;;;;8.52;4.90;;;;;;;19.27;65.50;100487.50;5087094;28;20024;-68
2023/05/31 00:09:10;;;;;;;12.25;6.22;;;;;;;19.34;65.40;100499.31;5070189;28;20368;-68
2023/05/31 00:11:35;;;;;;;10.35;5.40;;;;;;;19.27;65.31;100493.78;5073440;28;20039;-68
2023/05/31 00:14:01;;;;;;;7.47;4.95;;;;;;;19.33;65.25;100506.63;5082243;28;20040;-68
2023/05/31 00:16:26;;;;;;;7.72;5.15;;;;;;;19.27;65.26;100499.22;5069377;28;20028;-68
2023/05/31 00:18:52;;;;;;;9.50;6.05;;;;;;;19.32;65.13;100506.81;5070003;28;20034;-68
2023/05/31 00:21:17;;;;;;;11.77;5.22;;;;;;;19.27;64.86;100499.22;5071095;28;20622;-68
2023/05/31 00:23:43;;;;;;;9.23;4.88;;;;;;;19.21;64.74;100497.22;5075206;28;20020;-68
2023/05/31 00:26:08;;;;;;;10.27;4.93;;;;;;;19.18;64.44;100500.28;5070807;28;20028;-68
2023/05/31 00:28:33;;;;;;;9.77;5.40;;;;;;;19.16;64.40;100498.81;5079147;28;20033;-68
2023/05/31 00:30:59;;;;;;;9.40;5.15;;;;;;;19.16;64.44;100499.66;5073874;28;20024;-68
2023/05/31 00:33:24;;;;;;;9.75;4.95;;;;;;;19.14;64.03;100498.13;5070871;28;20028;-76
2023/05/31 00:35:50;;;;;;;7.47;4.68;;;;;;;19.16;64.19;100502.38;5075888;28;20036;-76
2023/05/31 00:38:15;;;;;;;8.85;5.55;;;;;;;19.17;63.94;100500.47;5074603;28;20029;-76
2023/05/31 00:40:41;;;;;;;7.68;5.10;;;;;;;19.09;64.03;100495.13;5081724;28;20020;-76
2023/05/31 00:43:06;;;;;;;8.93;4.97;;;;;;;19.12;63.85;100511.91;5091261;28;20028;-76
2023/05/31 00:45:33;;;;;;;12.15;5.32;;;;;;;19.11;63.77;100506.66;5089081;28;20024;-76
2023/05/31 00:48:01;;;;;;;13.32;5.63;;;;;;;19.08;63.90;100497.00;5085348;28;20094;-76
2023/05/31 00:50:27;;;;;;;11.65;5.43;;;;;;;19.09;63.86;100493.25;5075692;28;20110;-76
2023/05/31 00:52:56;;;;;;;9.32;5.20;;;;;;;19.09;63.58;100489.69;5080038;28;20427;-76
2023/05/31 00:55:21;;;;;;;11.55;4.85;;;;;;;19.04;63.37;100492.13;5075817;28;20024;-76
2023/05/31 00:57:47;;;;;;;8.75;5.00;;;;;;;19.05;63.56;100488.34;5084055;28;20034;-76
2023/05/31 01:00:14;;;;;;;8.55;5.10;;;;;;;19.05;63.99;100497.38;5080492;28;20032;-76
2023/05/31 01:02:41;;;;;;;9.32;5.18;;;;;;;19.05;63.48;100493.78;5074588;28;20032;-76
2023/05/31 01:05:08;;;;;;;9.05;4.88;;;;;;;19.00;63.50;100483.50;5086872;28;20104;-76
2023/05/31 01:07:34;;;;;;;11.68;5.43;;;;;;;19.00;63.82;100485.38;5093507;28;20545;-76
2023/05/31 01:10:05;;;;;;;9.73;4.82;;;;;;;19.01;63.53;100490.63;5084191;28;20105;-76
2023/05/31 01:12:56;;;;;;;7.85;4.63;;;;;;;19.04;63.65;100495.69;5076688;28;20059;-76
2023/05/31 01:15:33;;;;;;;6.15;4.65;;;;;;;19.06;63.80;100503.66;5076965;28;20059;-76
2023/05/31 01:18:19;;;;;;;11.18;5.07;;;;;;;19.04;64.29;100495.69;5086265;28;20085;-76
2023/05/31 01:20:47;;;;;;;10.45;5.00;;;;;;;19.05;64.29;100491.94;5080639;28;20501;-68
2023/05/31 01:23:13;;;;;;;8.85;4.95;;;;;;;19.00;64.47;100491.66;5090380;28;20109;-68
2023/05/31 01:25:57;;;;;;;8.57;5.40;;;;;;;19.00;64.22;100493.53;5068256;28;20072;-69
2023/05/31 01:28:26;;;;;;;6.80;4.57;;;;;;;18.92;64.51;100483.56;5072836;28;20059;-68
2023/05/31 01:30:53;;;;;;;6.60;4.53;;;;;;;18.98;64.43;100498.28;5085712;28;20111;-69
2023/05/31 01:33:20;;;;;;;7.35;4.63;;;;;;;18.98;64.50;100498.28;5085369;28;20054;-68
2023/05/31 01:35:45;;;;;;;7.30;5.53;;;;;;;18.84;64.58;100475.50;5072173;28;20536;-68
2023/05/31 01:38:11;;;;;;;10.80;4.72;;;;;;;18.95;64.58;100501.38;5084424;28;20015;-68
2023/05/31 01:40:38;;;;;;;9.38;4.70;;;;;;;18.87;64.64;100496.88;5076653;28;20039;-68
2023/05/31 01:43:05;;;;;;;8.60;4.85;;;;;;;18.85;64.93;100490.75;5086988;28;20027;-68
2023/05/31 01:45:31;;;;;;;7.75;4.45;;;;;;;18.88;64.94;100500.41;5067888;28;20047;-68
2023/05/31 01:48:05;;;;;;;8.20;4.88;;;;;;;18.90;64.95;100511.97;5068112;28;20024;-68
2023/05/31 01:50:35;;;;;;;11.70;5.18;;;;;;;18.87;65.03;100510.47;5081240;28;20433;-76
2023/05/31 01:53:01;;;;;;;8.38;4.95;;;;;;;18.87;65.04;100506.88;5086801;28;20498;-76
2023/05/31 01:55:27;;;;;;;8.52;4.60;;;;;;;18.87;65.53;100512.31;5071928;28;20028;-76
2023/05/31 01:57:54;;;;;;;8.38;5.03;;;;;;;18.83;65.77;100509.13;5074190;28;20016;-76
2023/05/31 02:00:21;;;;;;;9.43;5.25;;;;;;;18.85;66.06;100512.50;5075939;28;20028;-76
2023/05/31 02:02:47;;;;;;;11.02;4.50;;;;;;;18.85;66.03;100512.50;5083517;28;20035;-76
2023/05/31 02:05:12;;;;;;;8.43;4.80;;;;;;;18.77;66.24;100495.44;5071736;28;20028;-76
2023/05/31 02:07:42;;;;;;;10.30;4.85;;;;;;;18.79;66.11;100504.22;5080766;28;20490;-76
2023/05/31 02:10:08;;;;;;;8.50;5.05;;;;;;;18.80;66.78;100504.03;5074636;28;20020;-76
2023/05/31 02:12:34;;;;;;;10.13;5.50;;;;;;;18.83;66.41;100513.72;5074300;28;20028;-76
2023/05/31 02:14:59;;;;;;;8.73;5.13;;;;;;;18.81;66.57;100513.91;5070256;28;20556;-68
2023/05/31 02:17:25;;;;;;;8.82;5.18;;;;;;;18.70;66.94;100489.88;5070050;28;20097;-68
2023/05/31 02:19:52;;;;;;;8.88;5.10;;;;;;;18.82;67.01;100515.59;5089426;28;20423;-68
2023/05/31 02:22:18;;;;;;;9.73;5.20;;;;;;;18.69;66.83;100498.19;5077367;28;20032;-68
2023/05/31 02:24:44;;;;;;;7.03;4.88;;;;;;;18.75;66.76;100509.19;5067922;28;20063;-68
2023/05/31 02:27:10;;;;;;;12.65;4.95;;;;;;;18.77;66.82;100511.72;5067581;28;20029;-68
2023/05/31 02:29:35;;;;;;;11.95;5.75;;;;;;;18.68;66.61;100505.53;5073000;28;20027;-68
2023/05/31 02:32:01;;;;;;;10.48;5.03;;;;;;;18.73;66.88;100513.97;5071151;28;20403;-68
2023/05/31 02:34:28;;;;;;;8.35;4.82;;;;;;;18.63;66.98;100501.66;5075763;28;20020;-76
2023/05/31 02:36:53;;;;;;;8.07;5.00;;;;;;;18.73;67.01;100527.53;5072670;28;20016;-76
2023/05/31 02:39:19;;;;;;;11.95;5.40;;;;;;;18.69;66.99;100511.78;5077953;28;20033;-76
2023/05/31 02:41:45;;;;;;;11.40;5.22;;;;;;;18.63;67.04;100507.09;5077972;28;20107;-76
2023/05/31 02:44:10;;;;;;;9.80;5.32;;;;;;;18.65;66.68;100510.47;5082660;28;20634;-76
2023/05/31 02:46:36;;;;;;;11.38;4.53;;;;;;;18.66;66.86;100523.88;5072822;28;20028;-76
2023/05/31 02:49:02;;;;;;;9.00;5.03;;;;;;;18.54;67.02;100509.00;5083237;28;20387;-76
2023/05/31 02:51:28;;;;;;;8.98;5.28;;;;;;;18.66;66.80;100515.72;5080662;28;20032;-76
2023/05/31 02:53:53;;;;;;;7.72;5.43;;;;;;;18.63;66.85;100528.84;5083651;28;20032;-76
2023/05/31 02:56:19;;;;;;;8.18;4.72;;;;;;;18.64;67.01;100525.09;5079852;28;20033;-76
2023/05/31 02:58:45;;;;;;;8.23;4.95;;;;;;;18.58;67.13;100521.22;5075083;28;20024;-76
2023/05/31 03:01:10;;;;;;;7.57;5.28;;;;;;;18.55;66.99;100518.88;5087465;28;20040;-76
2023/05/31 03:03:36;;;;;;;8.15;4.47;;;;;;;18.51;66.90;100517.50;5086576;28;20157;-76
2023/05/31 03:06:02;;;;;;;10.73;5.25;;;;;;;18.52;66.89;100516.50;5082104;28;20035;-77
2023/05/31 03:08:28;;;;;;;11.57;5.03;;;;;;;18.55;67.11;100528.88;5081444;28;20051;-76
2023/05/31 03:10:53;;;;;;;10.85;4.80;;;;;;;18.48;67.27;100522.47;5081189;28;20031;-76
2023/05/31 03:13:18;;;;;;;8.48;4.82;;;;;;;18.51;67.29;100538.44;5079753;28;20021;-76
2023/05/31 03:15:44;;;;;;;8.77;4.80;;;;;;;18.50;67.23;100532.13;5079197;28;20094;-76
2023/05/31 03:18:10;;;;;;;10.32;4.68;;;;;;;18.40;67.28;100520.66;5076766;28;20100;-76
2023/05/31 03:20:35;;;;;;;7.20;5.30;;;;;;;18.46;67.63;100536.25;5070438;28;20367;-76
2023/05/31 03:23:01;;;;;;;9.90;4.20;;;;;;;18.44;67.62;100534.75;5080196;28;20059;-76
2023/05/31 03:25:27;;;;;;;14.70;5.38;;;;;;;18.42;67.52;100547.66;5078491;28;20389;-76
2023/05/31 03:27:53;;;;;;;7.90;4.25;;;;;;;18.38;67.75;100544.44;5086174;28;20028;-76
2023/05/31 03:30:18;;;;;;;13.45;4.60;;;;;;;18.35;67.81;100542.06;5083646;28;20039;-76
2023/05/31 03:32:43;;;;;;;9.13;4.28;;;;;;;18.27;67.84;100538.53;5090522;28;20028;-76
2023/05/31 03:35:09;;;;;;;9.20;5.07;;;;;;;18.29;67.80;100540.06;5085880;28;20410;-76
2023/05/31 03:37:34;;;;;;;9.60;4.85;;;;;;;18.25;67.87;100535.97;5084971;28;20111;-76
2023/05/31 03:40:00;;;;;;;11.88;4.68;;;;;;;18.31;68.36;100543.44;5083140;28;20033;-76
2023/05/31 03:42:25;;;;;;;8.35;4.82;;;;;;;18.27;67.83;100533.94;5087562;28;20032;-77
2023/05/31 03:44:51;;;;;;;10.40;4.57;;;;;;;18.31;68.12;100550.75;5089975;28;20064;-76
2023/05/31 03:47:17;;;;;;;8.02;4.45;;;;;;;18.27;68.07;100550.25;5081096;28;20028;-68
2023/05/31 03:49:42;;;;;;;6.28;4.05;;;;;;;18.26;68.07;100545.84;5072817;28;20376;-68
2023/05/31 03:52:12;;;;;;;10.90;4.75;;;;;;;18.28;68.41;100545.66;5090815;28;20062;-69
2023/05/31 03:54:38;;;;;;;8.07;4.10;;;;;;;18.31;68.25;100554.28;5074493;28;20089;-68
2023/05/31 03:57:04;;;;;;;13.73;5.00;;;;;;;18.21;68.46;100534.66;5072523;28;20028;-68
2023/05/31 03:59:30;;;;;;;8.65;4.38;;;;;;;18.21;68.25;100542.81;5076887;28;20034;-68
2023/05/31 04:01:55;;;;;;;10.18;4.60;;;;;;;18.30;68.15;100559.88;5076354;28;20480;-68
2023/05/31 04:04:21;;;;;;;9.95;5.20;;;;;;;18.24;68.48;100552.44;5076960;28;20029;-68
2023/05/31 04:06:46;;;;;;;8.05;4.45;;;;;;;18.27;68.20;100558.38;5072296;28;20627;-68
2023/05/31 04:09:11;;;;;;;9.05;4.28;;;;;;;18.22;68.19;100549.09;5068211;28;20303;-68
2023/05/31 04:11:37;;;;;;;8.00;4.50;;;;;;;18.22;68.19;100549.94;5073142;28;20422;-68
2023/05/31 04:14:03;;;;;;;13.15;4.68;;;;;;;18.26;68.12;100555.84;5061795;28;20029;-68
2023/05/31 04:16:28;;;;;;;12.52;4.65;;;;;;;18.25;68.08;100554.16;5070314;28;20376;-68
2023/05/31 04:18:54;;;;;;;11.48;4.30;;;;;;;18.19;67.87;100555.72;5067318;28;20530;-68
2023/05/31 04:21:20;;;;;;;9.93;4.75;;;;;;;18.22;67.76;100551.81;5077448;28;20373;-68
2023/05/31 04:23:46;;;;;;;11.50;4.78;;;;;;;18.20;68.09;100562.84;5089097;28;20032;-68
2023/05/31 04:26:16;;;;;;;8.68;4.55;;;;;;;18.17;68.18;100557.78;5068719;28;20027;-68
2023/05/31 04:28:42;;;;;;;13.10;4.65;;;;;;;18.13;67.53;100567.28;5079783;28;20398;-68
2023/05/31 04:31:08;;;;;;;10.90;4.43;;;;;;;18.12;67.52;100568.28;5078644;28;20078;-68
2023/05/31 04:33:35;;;;;;;7.88;4.43;;;;;;;18.17;67.54;100578.63;5078421;28;20044;-68
2023/05/31 04:36:03;;;;;;;9.10;4.15;;;;;;;18.13;68.06;100571.88;5087861;28;20482;-67
2023/05/31 04:38:29;;;;;;;7.28;4.07;;;;;;;18.15;67.45;100578.81;5073013;28;20066;-77
2023/05/31 04:40:56;;;;;;;11.07;4.35;;;;;;;18.16;68.19;100566.94;5076310;28;20390;-68
2023/05/31 04:43:23;;;;;;;12.98;4.20;;;;;;;18.15;67.46;100570.66;5075808;28;20024;-68
2023/05/31 04:48:49;;;;;;;9.65;4.13;;;;;;;18.21;67.34;100575.38;5085664;28;20083;-76
2023/05/31 04:51:18;;;;;;;11.98;4.80;;;;;;;18.15;67.32;100570.66;5090060;28;20035;-77
2023/05/31 04:53:47;;;;;;;11.63;4.75;;;;;;;18.20;67.00;100592.72;5077702;28;20056;-77
2023/05/31 04:56:13;;;;;;;11.73;5.00;;;;;;;18.19;66.69;100587.47;5086362;28;20040;-79
2023/05/31 04:58:39;;;;;;;11.10;4.97;;;;;;;18.09;67.00;100571.41;5086051;28;20032;-78
2023/05/31 05:01:06;;;;;;;11.13;4.35;;;;;;;18.15;66.20;100589.66;5073510;28;20044;-77
2023/05/31 05:03:32;;;;;;;15.85;4.57;;;;;;;18.20;66.04;100592.72;5087590;28;20028;-78
2023/05/31 05:06:11;;;;;;;9.88;4.50;;;;;;;18.13;65.93;100591.72;5076398;28;20028;-77
2023/05/31 05:08:36;;;;;;;12.32;5.03;;;;;;;18.09;66.40;100587.69;5071441;28;20112;-77
2023/05/31 05:11:02;;;;;;;11.27;4.63;;;;;;;18.12;65.93;100602.75;5083831;28;20429;-79
2023/05/31 05:13:28;;;;;;;11.20;3.97;;;;;;;18.15;65.96;100600.53;5082230;28;20028;-78
2023/05/31 05:15:53;;;;;;;7.97;4.72;;;;;;;18.14;66.20;100601.56;5080925;28;20051;-77
2023/05/31 05:18:18;;;;;;;10.73;4.72;;;;;;;18.21;66.32;100612.56;5083539;28;20031;-78
2023/05/31 05:20:44;;;;;;;10.82;4.63;;;;;;;18.20;65.78;100609.00;5082973;28;20042;-78
2023/05/31 05:23:09;;;;;;;10.57;4.57;;;;;;;18.22;66.06;100614.25;5084266;28;20072;-79
2023/05/31 05:25:35;;;;;;;12.50;4.25;;;;;;;18.12;66.50;100598.16;5081715;28;20033;-77
2023/05/31 05:28:01;;;;;;;11.50;4.35;;;;;;;18.26;66.14;100618.31;5085371;28;20162;-78
2023/05/31 05:30:27;;;;;;;17.70;4.80;;;;;;;18.29;66.67;100626.97;5078064;28;20143;-77
2023/05/31 05:32:52;;;;;;;12.57;4.60;;;;;;;18.25;66.21;100613.91;5072652;28;20049;-78
2023/05/31 05:35:18;;;;;;;12.52;4.32;;;;;;;18.33;66.23;100628.28;5078601;28;20024;-78
2023/05/31 05:37:43;;;;;;;12.63;4.78;;;;;;;18.28;66.23;100616.28;5074677;28;20378;-78
2023/05/31 05:40:09;;;;;;;11.18;4.32;;;;;;;18.27;66.18;100611.84;5073092;28;20109;-78
2023/05/31 05:42:37;;;;;;;10.38;4.03;;;;;;;18.37;66.38;100626.94;5082142;28;20083;-77
2023/05/31 05:45:09;;;;;;;11.88;4.75;;;;;;;18.36;66.74;100629.78;5085193;28;20511;-77
2023/05/31 05:47:35;;;;;;;10.07;4.18;;;;;;;18.38;66.77;100628.63;5080117;28;20025;-78
2023/05/31 05:50:01;;;;;;;15.77;4.80;;;;;;;18.40;66.37;100626.59;5071000;28;20170;-78
2023/05/31 05:52:27;;;;;;;14.73;4.50;;;;;;;18.40;66.55;100634.72;5081882;28;20039;-77
2023/05/31 05:54:52;;;;;;;8.52;4.43;;;;;;;18.31;66.44;100614.03;5067646;28;20230;-68
2023/05/31 05:57:19;;;;;;;13.38;4.53;;;;;;;18.42;66.81;100637.28;5069007;28;20366;-68
2023/05/31 05:59:45;;;;;;;14.43;4.05;;;;;;;18.43;66.49;100652.53;5082045;28;20051;-77
2023/05/31 06:02:11;;;;;;;16.52;4.60;;;;;;;18.41;66.64;100638.31;5071594;28;20040;-78
2023/05/31 06:04:37;;;;;;;11.07;4.35;;;;;;;18.43;66.73;100650.69;5079658;28;20034;-77
2023/05/31 06:07:02;;;;;;;11.02;4.20;;;;;;;18.43;66.78;100647.97;5072121;28;20432;-78
2023/05/31 06:09:28;;;;;;;16.70;4.72;;;;;;;18.42;67.00;100643.56;5089895;28;20052;-78
2023/05/31 06:11:53;;;;;;;11.50;4.13;;;;;;;18.44;66.88;100649.66;5086285;28;20024;-78
2023/05/31 06:14:18;;;;;;;12.75;4.22;;;;;;;18.44;67.60;100646.09;5077197;28;20047;-68
2023/05/31 06:16:44;;;;;;;9.40;4.65;;;;;;;18.46;67.69;100638.59;5066111;28;20045;-68
2023/05/31 06:19:09;;;;;;;12.27;4.03;;;;;;;18.47;67.39;100643.03;5087245;28;20020;-68
2023/05/31 06:21:35;;;;;;;7.43;4.25;;;;;;;18.40;66.64;100633.88;5066549;28;20034;-68
2023/05/31 06:24:02;;;;;;;11.57;4.60;;;;;;;18.46;66.87;100633.19;5087509;28;20028;-68
2023/05/31 06:26:27;;;;;;;18.27;4.53;;;;;;;18.47;66.99;100637.59;5068250;28;20036;-68
2023/05/31 06:28:53;;;;;;;9.40;4.60;;;;;;;18.49;67.58;100643.69;5066506;28;20086;-68
2023/05/31 06:31:18;;;;;;;9.57;4.45;;;;;;;18.48;67.46;100642.88;5082810;28;20036;-67
2023/05/31 06:33:44;;;;;;;13.27;4.07;;;;;;;18.46;66.95;100625.88;5086746;28;20028;-68
2023/05/31 06:36:10;;;;;;;9.05;4.20;;;;;;;18.54;67.13;100627.72;5086933;28;20027;-69
2023/05/31 06:38:35;;;;;;;15.02;4.78;;;;;;;18.57;67.00;100632.78;5086633;28;20122;-68
2023/05/31 06:41:01;;;;;;;10.82;3.97;;;;;;;18.58;66.81;100635.34;5066603;28;20093;-68
2023/05/31 06:43:26;;;;;;;13.07;4.35;;;;;;;18.60;67.37;100635.16;5080477;28;20046;-68
2023/05/31 06:45:52;;;;;;;10.88;4.20;;;;;;;18.59;67.06;100622.56;5066712;28;20024;-69
2023/05/31 06:48:17;;;;;;;11.00;4.05;;;;;;;18.71;67.19;100642.91;5066582;28;20098;-69
2023/05/31 06:50:42;;;;;;;8.68;4.10;;;;;;;18.77;66.57;100645.72;5064572;28;20120;-69
2023/05/31 06:53:12;;;;;;;8.88;4.30;;;;;;;18.75;66.68;100634.22;5066358;28;20140;-68
2023/05/31 06:55:38;;;;;;;10.82;4.32;;;;;;;18.78;66.38;100638.44;5066072;28;20030;-69
2023/05/31 06:58:04;;;;;;;11.90;4.45;;;;;;;18.75;65.80;100623.34;5064913;28;20077;-68
2023/05/31 07:00:29;;;;;;;10.88;4.18;;;;;;;18.88;66.28;100642.63;5065989;28;20458;-68
2023/05/31 07:02:55;;;;;;;11.40;4.35;;;;;;;18.86;66.57;100643.84;5064085;28;20017;-68
2023/05/31 07:05:21;;;;;;;12.52;4.00;;;;;;;18.94;66.13;100646.47;5066292;28;20035;-69
2023/05/31 07:07:47;;;;;;;12.00;4.45;;;;;;;18.99;65.68;100649.53;5065928;28;20082;-69
2023/05/31 07:10:12;;;;;;;12.77;4.80;;;;;;;18.98;65.58;100643.22;5066304;28;20047;-68
2023/05/31 07:12:38;;;;;;;13.18;4.50;;;;;;;19.07;65.55;100647.59;5078092;28;20505;-77
2023/05/31 07:15:04;;;;;;;11.13;4.65;;;;;;;19.14;65.54;100645.81;5084808;28;20043;-77
2023/05/31 07:17:30;;;;;;;12.93;4.55;;;;;;;19.17;65.28;100650.91;5082300;28;20322;-77
2023/05/31 07:19:55;;;;;;;8.55;4.57;;;;;;;19.23;64.82;100657.47;5081729;28;20020;-77
2023/05/31 07:22:22;;;;;;;10.80;4.40;;;;;;;19.29;64.51;100651.34;5087481;28;20069;-77
2023/05/31 07:24:48;;;;;;;13.82;4.70;;;;;;;19.29;63.76;100651.34;5070707;28;20036;-77
2023/05/31 07:27:13;;;;;;;7.07;4.10;;;;;;;19.36;64.27;100652.31;5089237;28;20101;-77
2023/05/31 07:29:39;;;;;;;12.13;4.50;;;;;;;19.40;64.34;100649.03;5081947;28;20016;-77
2023/05/31 07:32:05;;;;;;;7.85;4.50;;;;;;;19.51;64.42;100664.91;5083375;28;20491;-77
2023/05/31 07:34:31;;;;;;;9.15;4.32;;;;;;;19.55;64.01;100651.81;5085616;28;20032;-77
2023/05/31 07:36:57;;;;;;;10.43;4.55;;;;;;;19.64;64.23;100664.31;5087744;28;20487;-77
2023/05/31 07:39:22;;;;;;;5.90;3.47;;;;;;;19.75;64.19;100651.09;5090308;28;20034;-76
2023/05/31 07:41:48;;;;;;;7.82;3.65;;;;;;;19.85;63.70;100646.22;5086093;28;20067;-77
2023/05/31 07:44:16;;;;;;;9.10;4.22;;;;;;;20.07;63.77;100650.75;5086591;28;20048;-69
2023/05/31 07:46:42;;;;;;;11.30;4.10;;;;;;;20.13;63.83;100632.84;5085493;28;20032;-69
2023/05/31 07:49:07;;;;;;;9.10;4.60;;;;;;;20.29;63.29;100638.09;5080750;28;20034;-69
2023/05/31 07:51:33;;;;;;;8.45;4.20;;;;;;;20.53;62.52;100650.56;5065376;28;20089;-69
2023/05/31 07:53:58;;;;;;;11.43;4.10;;;;;;;20.62;61.29;100652.13;5066971;28;20467;-77
2023/05/31 07:56:25;;;;;;;6.57;3.78;;;;;;;20.76;59.64;100648.53;5081084;28;20028;-77
2023/05/31 07:58:50;;;;;;;9.68;3.97;;;;;;;20.88;59.44;100636.06;5066093;28;20666;-77
2023/05/31 08:01:16;;;;;;;11.15;4.57;;;;;;;21.01;59.10;100655.34;5069516;28;20032;-77
2023/05/31 08:03:41;;;;;;;6.82;4.47;;;;;;;21.10;58.51;100644.13;5065145;28;20013;-77
2023/05/31 08:06:07;;;;;;;12.52;4.47;;;;;;;21.14;58.31;100648.16;5072982;28;20046;-77
2023/05/31 08:08:33;;;;;;;7.53;4.05;;;;;;;21.16;57.88;100653.41;5065376;28;20081;-69
2023/05/31 08:11:00;;;;;;;10.60;4.25;;;;;;;21.20;57.19;100654.69;5065769;28;20031;-69
2023/05/31 08:13:26;;;;;;;13.73;4.53;;;;;;;21.13;57.20;100649.19;5079480;28;20039;-68
2023/05/31 08:15:54;;;;;;;12.60;4.20;;;;;;;21.22;57.54;100648.00;5069168;28;20539;-69
2023/05/31 08:18:20;;;;;;;8.65;4.20;;;;;;;21.24;57.45;100634.16;5067824;28;20028;-69
2023/05/31 08:20:45;;;;;;;11.77;3.88;;;;;;;21.32;57.39;100647.69;5068828;28;20024;-69
2023/05/31 08:23:21;;;;;;;12.65;3.92;;;;;;;21.35;56.87;100647.31;5067845;28;20093;-69
2023/05/31 08:25:47;;;;;;;8.93;4.65;;;;;;;21.47;57.40;100648.47;5067282;28;20033;-69
2023/05/31 08:28:12;;;;;;;8.43;4.07;;;;;;;21.53;57.04;100650.38;5069391;28;20086;-69
2023/05/31 08:30:38;;;;;;;13.45;4.20;;;;;;;21.60;56.99;100656.78;5067125;28;20024;-69
2023/05/31 08:33:03;;;;;;;7.82;4.10;;;;;;;21.59;56.98;100639.53;5072361;28;20542;-69
2023/05/31 08:35:29;;;;;;;8.90;4.18;;;;;;;21.70;57.22;100658.09;5084634;28;20487;-77
2023/05/31 08:37:55;;;;;;;11.25;4.07;;;;;;;21.75;57.45;100655.66;5081715;28;20020;-78
2023/05/31 08:40:22;;;;;;;12.35;4.53;;;;;;;21.78;56.87;100652.53;5082058;28;20059;-78
2023/05/31 08:42:52;;;;;;;7.05;4.07;;;;;;;21.86;57.21;100654.28;5069319;28;20037;-69
2023/05/31 08:45:17;;;;;;;11.18;4.72;;;;;;;21.97;57.08;100653.72;5069313;28;20054;-69
2023/05/31 08:47:45;;;;;;;14.65;4.35;;;;;;;22.04;56.39;100658.19;5067569;28;20016;-68
2023/05/31 08:50:12;;;;;;;8.65;4.65;;;;;;;22.03;56.59;100639.25;5067136;28;20069;-69
2023/05/31 08:52:39;;;;;;;6.53;4.07;;;;;;;22.11;55.84;100650.00;5081585;28;20077;-78
2023/05/31 08:55:05;;;;;;;13.48;4.70;;;;;;;22.23;55.46;100648.41;5071928;28;20436;-78
2023/05/31 08:57:33;;;;;;;8.15;4.55;;;;;;;22.26;55.79;100650.75;5075134;28;20041;-77
2023/05/31 09:00:01;;;;;;;5.90;4.25;;;;;;;22.32;55.46;100652.69;5079230;28;20016;-77
2023/05/31 09:02:28;;;;;;;7.82;4.53;;;;;;;22.25;55.50;100638.97;5076435;28;20041;-77
2023/05/31 09:04:55;;;;;;;12.32;4.85;;;;;;;22.33;55.00;100651.63;5087137;28;20059;-77
2023/05/31 09:07:21;;;;;;;9.27;4.50;;;;;;;22.27;54.83;100634.16;5081647;28;20020;-77
2023/05/31 09:09:46;;;;;;;12.57;4.22;;;;;;;22.36;55.01;100648.50;5076465;28;20032;-78
2023/05/31 09:12:12;;;;;;;6.53;4.05;;;;;;;22.40;55.15;100636.09;5077586;28;20028;-78
2023/05/31 09:14:38;;;;;;;13.55;4.85;;;;;;;22.45;55.00;100640.97;5079249;28;20028;-77
2023/05/31 09:17:04;;;;;;;7.60;4.10;;;;;;;22.46;54.09;100632.56;5082260;28;20024;-77
2023/05/31 09:19:30;;;;;;;9.38;4.00;;;;;;;22.55;53.76;100631.38;5072862;28;20035;-77
2023/05/31 09:21:55;;;;;;;6.80;4.28;;;;;;;22.61;53.85;100638.75;5078120;28;20032;-77
2023/05/31 09:24:22;;;;;;;11.43;4.90;;;;;;;22.65;54.12;100637.28;5073249;28;20537;-77
2023/05/31 09:26:49;;;;;;;9.30;4.78;;;;;;;22.71;53.80;100638.34;5074060;28;20463;-77
2023/05/31 09:29:15;;;;;;;9.38;4.75;;;;;;;22.80;53.77;100627.03;5070137;28;20068;-77
2023/05/31 09:31:41;;;;;;;7.55;4.32;;;;;;;22.81;53.47;100625.13;5071578;28;20044;-77
2023/05/31 09:34:25;;;;;;;10.52;4.38;;;;;;;22.86;53.55;100628.94;5085096;28;20079;-77
2023/05/31 09:36:51;;;;;;;13.50;4.63;;;;;;;22.93;52.79;100634.44;5081632;28;21888;-77
2023/05/31 09:39:16;;;;;;;15.95;5.00;;;;;;;22.99;53.16;100634.44;5080873;28;20025;-77
2023/05/31 09:41:42;;;;;;;9.68;4.68;;;;;;;23.08;52.61;100624.16;5084089;28;20028;-77
2023/05/31 09:44:08;;;;;;;13.18;5.28;;;;;;;23.20;52.58;100627.94;5070424;28;20071;-77
2023/05/31 09:46:34;;;;;;;9.30;4.85;;;;;;;23.25;52.26;100634.50;5066450;28;20415;-77
2023/05/31 09:49:06;;;;;;;8.15;4.53;;;;;;;23.22;52.25;100626.72;5070622;28;20020;-78
2023/05/31 09:51:32;;;;;;;5.80;4.43;;;;;;;23.33;52.47;100625.25;5076094;28;20034;-77
2023/05/31 09:54:00;;;;;;;10.90;4.93;;;;;;;23.34;52.24;100618.75;5068545;28;20020;-78
2023/05/31 09:56:27;;;;;;;15.30;4.75;;;;;;;23.45;51.77;100618.97;5078424;28;20115;-77
2023/05/31 09:58:56;;;;;;;11.35;4.78;;;;;;;23.52;51.19;100610.75;5079098;28;20036;-78
2023/05/31 10:01:22;;;;;;;11.88;4.65;;;;;;;23.54;50.60;100619.59;5067383;28;20072;-78
2023/05/31 10:03:49;;;;;;;8.40;4.40;;;;;;;23.63;50.74;100619.16;5085471;28;20395;-77
2023/05/31 10:06:18;;;;;;;11.32;5.30;;;;;;;23.61;50.67;100624.03;5082674;28;20032;-77
2023/05/31 10:08:48;;;;;;;11.13;4.75;;;;;;;23.65;50.16;100619.81;5067232;28;20433;-77
2023/05/31 10:11:17;;;;;;;8.95;4.57;;;;;;;23.76;50.42;100621.88;5076477;28;20500;-77
2023/05/31 10:13:47;;;;;;;8.18;4.25;;;;;;;23.80;51.04;100614.91;5083244;28;20108;-77
2023/05/31 10:16:15;;;;;;;14.88;4.90;;;;;;;23.79;50.49;100605.03;5068875;28;20513;-77
2023/05/31 10:18:45;;;;;;;6.97;4.43;;;;;;;23.81;50.65;100594.72;5062935;28;20025;-77
2023/05/31 10:21:22;;;;;;;9.88;5.22;;;;;;;23.91;50.69;100606.06;5081848;28;20510;-77
2023/05/31 10:24:02;;;;;;;15.07;5.30;;;;;;;23.89;50.42;100608.16;5077203;28;20028;-77
2023/05/31 10:26:55;;;;;;;11.95;4.95;;;;;;;23.96;50.45;100606.28;5075066;28;20034;-77
2023/05/31 10:29:26;;;;;;;6.97;4.40;;;;;;;23.95;49.85;100598.28;5079142;28;20032;-77
2023/05/31 10:31:55;;;;;;;10.48;4.70;;;;;;;24.02;49.42;100589.00;5064908;28;20039;-70
2023/05/31 10:34:25;;;;;;;6.68;4.90;;;;;;;24.20;49.53;100602.00;5065441;28;20060;-70
2023/05/31 10:36:55;;;;;;;8.20;4.45;;;;;;;24.08;49.26;100559.88;5064752;28;20082;-70
2023/05/31 10:39:58;;;;;;;10.15;5.30;;;;;;;24.35;48.60;100594.38;5066300;28;20040;-70
2023/05/31 10:42:48;;;;;;;7.90;5.25;;;;;;;24.36;47.88;100596.91;5078472;28;20032;-70
2023/05/31 10:45:29;;;;;;;16.35;5.40;;;;;;;24.43;47.41;100600.47;5073793;28;20168;-70
2023/05/31 10:48:13;;;;;;;12.85;5.38;;;;;;;24.39;47.44;100593.72;5070612;28;20032;-69
2023/05/31 10:51:00;;;;;;;10.73;5.45;;;;;;;24.30;46.44;100591.44;5076287;28;20032;-69
2023/05/31 10:53:31;;;;;;;7.07;4.82;;;;;;;24.40;47.03;100595.41;5068478;28;20407;-69
2023/05/31 10:56:09;;;;;;;10.10;4.53;;;;;;;24.44;47.14;100595.81;5068162;28;20384;-69
2023/05/31 10:58:51;;;;;;;7.97;4.63;;;;;;;24.51;46.91;100601.25;5083909;28;20801;-69
2023/05/31 11:01:21;;;;;;;8.88;4.03;;;;;;;24.47;46.82;100603.59;5067142;28;20048;-70
2023/05/31 11:03:53;;;;;;;5.38;4.43;;;;;;;24.51;46.85;100595.78;5079557;28;20121;-69
2023/05/31 11:06:27;;;;;;;7.63;4.55;;;;;;;24.56;47.28;100596.81;5068438;28;20048;-69
2023/05/31 11:09:11;;;;;;;8.02;4.28;;;;;;;24.61;47.43;100591.50;5084453;28;20603;-70
2023/05/31 11:11:37;;;;;;;10.15;4.25;;;;;;;24.72;47.42;100590.00;5071875;28;20037;-69
2023/05/31 11:14:16;;;;;;;9.75;4.95;;;;;;;24.75;47.52;100584.06;5065153;28;20039;-70
2023/05/31 11:16:46;;;;;;;13.00;5.22;;;;;;;24.75;45.61;100586.81;5065821;28;20032;-70
2023/05/31 11:19:16;;;;;;;9.20;4.40;;;;;;;24.72;46.13;100568.03;5065059;28;20027;-70
2023/05/31 11:21:49;;;;;;;11.25;4.63;;;;;;;24.75;46.29;100564.84;5070455;28;20415;-70
2023/05/31 11:24:36;;;;;;;7.32;4.30;;;;;;;24.80;46.58;100563.16;5066892;28;20394;-70
2023/05/31 11:27:02;;;;;;;9.30;4.50;;;;;;;24.84;45.67;100574.53;5064621;28;20383;-69